createdAt,value
2018-12-11T00:00:25.087Z,102126.68
2018-12-11T00:03:49.806Z,102124.81
2018-12-11T00:07:14.570Z,102134.95
2018-12-11T00:10:39.282Z,102132.48
2018-12-11T00:14:04.022Z,102134.64
2018-12-11T00:17:28.703Z,102133.80
2018-12-11T00:20:53.395Z,102135.91
2018-12-11T00:24:18.321Z,102135.45
2018-12-11T00:27:43.010Z,102136.68
2018-12-11T00:31:07.796Z,102128.36
2018-12-11T00:34:32.508Z,102123.12
2018-12-11T00:37:57.202Z,102122.75
2018-12-11T00:41:21.911Z,102116.06
2018-12-11T00:44:46.649Z,102126.25
2018-12-11T00:48:11.341Z,102119.07
2018-12-11T00:51:36.043Z,102121.45
2018-12-11T00:55:00.787Z,102125.41
2018-12-11T00:58:25.564Z,102117.67
2018-12-11T01:01:50.310Z,102121.56
2018-12-11T01:05:15.064Z,102126.46
2018-12-11T01:08:39.788Z,102119.59
2018-12-11T01:12:04.667Z,102123.25
2018-12-11T01:15:29.433Z,102127.48
2018-12-11T01:18:54.352Z,102123.38
2018-12-11T01:22:19.060Z,102121.26
2018-12-11T01:25:43.764Z,102135.95
2018-12-11T01:29:08.545Z,102135.44
2018-12-11T01:32:38.447Z,102131.64
2018-12-11T01:36:04.013Z,102136.48
2018-12-11T01:39:28.724Z,102142.09
2018-12-11T01:42:53.476Z,102134.81
2018-12-11T01:46:18.219Z,102143.34
2018-12-11T01:49:42.894Z,102144.96
2018-12-11T01:53:08.056Z,102138.99
2018-12-11T01:56:32.769Z,102135.80
2018-12-11T01:59:57.532Z,102123.75
2018-12-11T02:03:22.247Z,102128.88
2018-12-11T02:06:48.153Z,102132.43
2018-12-11T02:10:12.936Z,102133.89
2018-12-11T02:13:37.650Z,102142.96
2018-12-11T02:17:02.480Z,102141.08
2018-12-11T02:20:27.200Z,102133.56
2018-12-11T02:23:51.953Z,102138.20
2018-12-11T02:27:16.912Z,102136.98
2018-12-11T02:30:45.206Z,102132.52
2018-12-11T02:34:10.212Z,102134.19
2018-12-11T02:37:34.998Z,102128.80
2018-12-11T02:40:59.764Z,102129.38
2018-12-11T02:44:31.360Z,102128.67
2018-12-11T02:47:56.061Z,102125.00
2018-12-11T02:51:20.836Z,102133.89
2018-12-11T02:54:45.554Z,102136.95
2018-12-11T02:58:10.264Z,102142.08
2018-12-11T03:01:34.965Z,102137.40
2018-12-11T03:04:59.726Z,102135.61
2018-12-11T03:08:24.455Z,102139.61
2018-12-11T03:11:49.255Z,102140.08
2018-12-11T03:15:14.182Z,102135.10
2018-12-11T03:18:39.140Z,102141.56
2018-12-11T03:22:03.863Z,102124.45
2018-12-11T03:25:28.578Z,102131.59
2018-12-11T03:28:53.266Z,102124.04
2018-12-11T03:32:17.999Z,102121.67
2018-12-11T03:35:42.700Z,102112.31
2018-12-11T03:39:08.073Z,102118.53
2018-12-11T03:42:32.855Z,102119.51
2018-12-11T03:45:57.687Z,102111.98
2018-12-11T03:49:22.439Z,102113.98
2018-12-11T03:52:47.158Z,102120.24
2018-12-11T03:56:11.828Z,102116.20
2018-12-11T03:59:37.171Z,102120.28
2018-12-11T04:03:01.943Z,102121.53
2018-12-11T04:06:26.652Z,102130.09
2018-12-11T04:09:51.354Z,102124.20
2018-12-11T04:13:16.104Z,102127.76
2018-12-11T04:16:40.892Z,102122.33
2018-12-11T04:20:06.907Z,102108.38
2018-12-11T04:23:31.572Z,102118.03
2018-12-11T04:26:56.346Z,102116.72
2018-12-11T04:30:21.097Z,102118.21
2018-12-11T04:33:45.858Z,102124.66
2018-12-11T04:37:10.562Z,102128.70
2018-12-11T04:40:35.270Z,102131.95
2018-12-11T04:43:59.988Z,102123.28
2018-12-11T04:47:24.652Z,102121.26
2018-12-11T04:50:49.412Z,102130.04
2018-12-11T04:54:14.107Z,102116.90
2018-12-11T04:57:38.899Z,102122.29
2018-12-11T05:01:03.627Z,102120.02
2018-12-11T05:04:28.419Z,102129.22
2018-12-11T05:07:53.127Z,102132.10
2018-12-11T05:11:31.593Z,102123.38
2018-12-11T05:15:02.943Z,102123.80
2018-12-11T05:18:27.700Z,102124.29
2018-12-11T05:21:52.463Z,102124.34
2018-12-11T05:25:17.187Z,102125.25
2018-12-11T05:28:52.962Z,102112.43
2018-12-11T05:32:17.716Z,102110.22
2018-12-11T05:35:42.529Z,102113.94
2018-12-11T05:39:13.860Z,102112.59
2018-12-11T05:42:42.348Z,102110.94
2018-12-11T05:46:07.483Z,102107.34
2018-12-11T05:49:32.188Z,102103.83
2018-12-11T05:52:56.859Z,102104.87
2018-12-11T05:56:21.556Z,102115.15
2018-12-11T05:59:46.375Z,102114.69
2018-12-11T06:03:10.995Z,102112.19
2018-12-11T06:06:35.712Z,102111.28
2018-12-11T06:10:00.437Z,102121.28
2018-12-11T06:13:25.182Z,102130.22
2018-12-11T06:16:49.916Z,102126.23
2018-12-11T06:20:14.585Z,102126.78
2018-12-11T06:23:39.295Z,102127.01
2018-12-11T06:27:04.010Z,102127.23
2018-12-11T06:30:28.686Z,102125.66
2018-12-11T06:33:53.903Z,102130.70
2018-12-11T06:37:18.681Z,102125.09
2018-12-11T06:40:43.379Z,102120.81
2018-12-11T06:44:08.064Z,102124.69
2018-12-11T06:47:32.745Z,102129.67
2018-12-11T06:50:57.438Z,102124.84
2018-12-11T06:54:22.087Z,102120.73
2018-12-11T06:57:46.815Z,102131.34
2018-12-11T07:01:11.453Z,102133.17
2018-12-11T07:04:36.206Z,102130.52
2018-12-11T07:08:00.839Z,102128.80
2018-12-11T07:11:25.594Z,102125.59
2018-12-11T07:14:50.362Z,102128.27
2018-12-11T07:18:15.057Z,102129.80
2018-12-11T07:21:39.801Z,102127.00
2018-12-11T07:25:13.573Z,102130.94
2018-12-11T07:28:38.583Z,102138.58
2018-12-11T07:32:05.589Z,102136.25
2018-12-11T07:35:30.797Z,102133.94
2018-12-11T07:38:55.942Z,102129.09
2018-12-11T07:42:22.091Z,102132.64
2018-12-11T07:45:46.991Z,102130.89
2018-12-11T07:49:11.832Z,102138.03
2018-12-11T07:52:36.779Z,102145.00
2018-12-11T07:56:01.524Z,102138.66
2018-12-11T07:59:26.495Z,102130.89
2018-12-11T08:02:51.336Z,102134.92
2018-12-11T08:06:16.276Z,102136.75
2018-12-11T08:09:41.173Z,102137.36
2018-12-11T08:13:06.052Z,102142.41
2018-12-11T08:16:31.279Z,102138.58
2018-12-11T08:19:56.299Z,102139.34
2018-12-11T08:23:21.204Z,102146.16
2018-12-11T08:26:46.053Z,102143.11
2018-12-11T08:30:11.191Z,102144.50
2018-12-11T08:33:36.741Z,102150.36
2018-12-11T08:37:01.665Z,102154.24
2018-12-11T08:40:30.379Z,102148.23
2018-12-11T08:43:55.619Z,102147.27
2018-12-11T08:47:20.344Z,102143.03
2018-12-11T08:50:45.317Z,102145.13
2018-12-11T08:54:13.331Z,102151.52
2018-12-11T08:57:38.632Z,102154.75
2018-12-11T09:01:03.733Z,102159.73
2018-12-11T09:04:28.738Z,102156.27
2018-12-11T09:07:54.582Z,102158.11
2018-12-11T09:11:19.637Z,102163.74
2018-12-11T09:14:48.508Z,102164.16
2018-12-11T09:18:13.767Z,102164.39
2018-12-11T09:21:42.992Z,102167.22
2018-12-11T09:25:08.786Z,102163.24
2018-12-11T09:28:39.103Z,102157.88
2018-12-11T09:32:09.712Z,102164.77
2018-12-11T09:35:41.629Z,102169.45
2018-12-11T09:39:10.486Z,102164.46
2018-12-11T09:42:36.976Z,102167.27
2018-12-11T09:46:03.976Z,102176.89
2018-12-11T09:49:30.008Z,102177.43
2018-12-11T09:52:57.418Z,102169.77
2018-12-11T09:56:25.320Z,102175.87
2018-12-11T09:59:50.256Z,102176.95
2018-12-11T10:03:16.425Z,102188.08
2018-12-11T10:06:43.089Z,102184.47
2018-12-11T10:10:10.533Z,102184.81
2018-12-11T10:13:36.350Z,102175.71
2018-12-11T10:17:01.788Z,102179.44
2018-12-11T10:20:27.149Z,102174.52
2018-12-11T10:23:53.077Z,102182.81
2018-12-11T10:27:22.034Z,102181.36
2018-12-11T10:30:48.863Z,102185.17
2018-12-11T10:34:16.862Z,102185.77
2018-12-11T10:37:42.348Z,102184.13
2018-12-11T10:41:07.635Z,102177.83
2018-12-11T10:44:32.543Z,102181.00
2018-12-11T10:47:58.694Z,102179.94
2018-12-11T10:51:23.758Z,102181.35
2018-12-11T10:54:48.638Z,102185.23
2018-12-11T10:58:13.531Z,102180.94
2018-12-11T11:01:44.607Z,102178.88
2018-12-11T11:05:10.176Z,102180.74
2018-12-11T11:08:35.376Z,102161.70
2018-12-11T11:12:00.963Z,102170.34
2018-12-11T11:15:26.729Z,102163.32
2018-12-11T11:18:52.203Z,102162.01
2018-12-11T11:22:17.459Z,102158.73
2018-12-11T11:25:42.271Z,102159.38
2018-12-11T11:29:08.385Z,102168.64
2018-12-11T11:32:34.532Z,102172.70
2018-12-11T11:36:03.825Z,102172.86
2018-12-11T11:39:30.086Z,102169.39
2018-12-11T11:42:55.214Z,102154.73
2018-12-11T11:46:20.423Z,102148.53
2018-12-11T11:49:46.911Z,102153.66
2018-12-11T11:53:11.925Z,102156.45
2018-12-11T11:56:36.922Z,102147.06
2018-12-11T12:00:02.106Z,102150.16
2018-12-11T12:03:27.077Z,102146.94
2018-12-11T12:06:56.498Z,102145.50
2018-12-11T12:10:21.581Z,102149.02
2018-12-11T12:13:46.621Z,102148.56
2018-12-11T12:17:11.510Z,102145.39
2018-12-11T12:20:36.817Z,102141.63
2018-12-11T12:24:02.338Z,102146.72
2018-12-11T12:27:27.354Z,102154.84
2018-12-11T12:30:53.268Z,102151.06
2018-12-11T12:34:46.313Z,102155.20
2018-12-11T12:38:27.879Z,102148.05
2018-12-11T12:41:53.131Z,102148.55
2018-12-11T12:45:18.454Z,102150.25
2018-12-11T12:48:45.013Z,102149.67
2018-12-11T12:52:15.839Z,102151.75
2018-12-11T12:55:40.900Z,102151.64
2018-12-11T12:59:06.353Z,102146.80
2018-12-11T13:02:31.635Z,102151.05
2018-12-11T13:05:56.852Z,102152.68
2018-12-11T13:09:27.103Z,102150.70
2018-12-11T13:12:52.066Z,102143.79
2018-12-11T13:16:16.854Z,102135.20
2018-12-11T13:19:41.547Z,102137.77
2018-12-11T13:23:06.220Z,102137.06
2018-12-11T13:26:30.896Z,102131.31
2018-12-11T13:29:55.542Z,102130.16
2018-12-11T13:33:21.943Z,102134.20
2018-12-11T13:36:46.647Z,102136.73
2018-12-11T13:40:11.369Z,102140.47
2018-12-11T13:43:36.100Z,102137.18
2018-12-11T13:47:00.983Z,102133.38
2018-12-11T13:50:25.761Z,102126.02
2018-12-11T13:53:50.497Z,102131.30
2018-12-11T13:57:15.401Z,102131.35
2018-12-11T14:00:40.060Z,102130.95
2018-12-11T14:04:05.219Z,102134.31
2018-12-11T14:07:35.575Z,102134.28
2018-12-11T14:11:00.934Z,102125.63
2018-12-11T14:14:26.860Z,102118.56
2018-12-11T14:17:58.693Z,102129.28
2018-12-11T14:21:24.215Z,102119.98
2018-12-11T14:24:49.462Z,102115.85
2018-12-11T14:28:14.254Z,102122.58
2018-12-11T14:31:38.996Z,102119.39
2018-12-11T14:35:03.893Z,102125.59
2018-12-11T14:38:28.713Z,102130.97
2018-12-11T14:41:53.787Z,102131.78
2018-12-11T14:45:18.582Z,102121.84
2018-12-11T14:48:43.700Z,102127.41
2018-12-11T14:52:08.741Z,102123.88
2018-12-11T14:55:33.449Z,102134.63
2018-12-11T14:58:58.143Z,102136.44
2018-12-11T15:02:23.002Z,102135.14
2018-12-11T15:05:47.825Z,102143.22
2018-12-11T15:09:18.034Z,102139.05
2018-12-11T15:12:43.461Z,102144.97
2018-12-11T15:16:08.884Z,102139.28
2018-12-11T15:19:33.550Z,102133.34
2018-12-11T15:22:58.270Z,102135.33
2018-12-11T15:26:22.920Z,102137.68
2018-12-11T15:29:47.598Z,102137.27
2018-12-11T15:33:12.288Z,102142.17
2018-12-11T15:36:36.954Z,102142.50
2018-12-11T15:40:01.627Z,102151.13
2018-12-11T15:43:26.730Z,102151.99
2018-12-11T15:46:51.600Z,102150.86
2018-12-11T15:50:16.280Z,102151.06
2018-12-11T15:53:41.021Z,102150.55
2018-12-11T16:00:47.824Z,102143.84
2018-12-11T16:04:12.551Z,102147.53
2018-12-11T16:07:37.987Z,102154.50
2018-12-11T16:11:02.681Z,102152.47
2018-12-11T16:14:27.378Z,102160.93
2018-12-11T16:17:52.081Z,102158.00
2018-12-11T16:21:16.785Z,102163.31
2018-12-11T16:24:41.453Z,102162.69
2018-12-11T16:28:06.207Z,102163.67
2018-12-11T16:31:30.902Z,102164.44
2018-12-11T16:34:55.838Z,102164.68
2018-12-11T16:38:20.596Z,102164.03
2018-12-11T16:41:45.342Z,102163.39
2018-12-11T16:45:10.179Z,102165.31
2018-12-11T16:48:34.970Z,102163.52
2018-12-11T16:51:59.662Z,102166.02
2018-12-11T16:55:24.358Z,102168.09
2018-12-11T16:58:49.270Z,102173.45
2018-12-11T17:02:13.998Z,102170.88
2018-12-11T17:05:39.345Z,102181.79
2018-12-11T17:09:05.263Z,102181.69
2018-12-11T17:12:30.460Z,102178.74
2018-12-11T17:15:56.919Z,102173.09
2018-12-11T17:19:21.750Z,102172.94
2018-12-11T17:22:46.464Z,102181.34
2018-12-11T17:26:11.154Z,102179.66
2018-12-11T17:29:35.864Z,102180.92
2018-12-11T17:33:02.915Z,102186.06
2018-12-11T17:36:27.947Z,102183.63
2018-12-11T17:39:52.830Z,102189.04
2018-12-11T17:43:17.990Z,102193.02
2018-12-11T17:46:42.762Z,102189.67
2018-12-11T17:50:09.204Z,102186.88
2018-12-11T17:53:34.422Z,102190.09
2018-12-11T17:56:59.379Z,102186.61
2018-12-11T18:00:24.209Z,102189.97
2018-12-11T18:03:48.892Z,102190.84
2018-12-11T18:07:13.599Z,102195.64
2018-12-11T18:10:38.325Z,102193.99
2018-12-11T18:14:03.119Z,102207.05
2018-12-11T18:17:27.899Z,102204.30
2018-12-11T18:20:52.559Z,102205.73
2018-12-11T18:24:17.238Z,102207.81
2018-12-11T18:27:41.902Z,102209.10
2018-12-11T18:31:07.532Z,102204.65
2018-12-11T18:34:34.222Z,102221.41
2018-12-11T18:37:58.930Z,102219.67
2018-12-11T18:41:23.605Z,102217.75
2018-12-11T18:44:48.332Z,102222.02
2018-12-11T18:48:13.088Z,102219.52
2018-12-11T18:51:37.931Z,102223.31
2018-12-11T18:55:02.614Z,102226.77
2018-12-11T18:58:27.297Z,102222.66
2018-12-11T19:01:52.030Z,102225.80
2018-12-11T19:05:16.967Z,102227.40
2018-12-11T19:08:41.712Z,102217.13
2018-12-11T19:12:06.466Z,102215.48
2018-12-11T19:15:31.220Z,102218.41
2018-12-11T19:18:55.953Z,102212.49
2018-12-11T19:22:20.712Z,102224.45
2018-12-11T19:25:45.915Z,102228.16
2018-12-11T19:29:10.702Z,102228.51
2018-12-11T19:32:35.837Z,102216.47
2018-12-11T19:36:00.515Z,102221.05
2018-12-11T19:39:25.565Z,102216.41
2018-12-11T19:42:50.599Z,102211.77
2018-12-11T19:46:15.979Z,102216.05
2018-12-11T19:49:40.709Z,102221.53
2018-12-11T19:53:05.687Z,102215.95
2018-12-11T19:56:30.359Z,102211.22
2018-12-11T19:59:55.789Z,102210.59
2018-12-11T20:03:20.539Z,102215.92
2018-12-11T20:06:46.275Z,102210.39
2018-12-11T20:10:18.483Z,102216.11
2018-12-11T20:13:52.193Z,102213.64
2018-12-11T20:17:16.927Z,102216.82
2018-12-11T20:20:41.723Z,102222.99
2018-12-11T20:24:06.570Z,102223.40
2018-12-11T20:27:31.242Z,102221.88
2018-12-11T20:30:56.270Z,102227.16
2018-12-11T20:34:21.026Z,102223.97
2018-12-11T20:37:45.826Z,102220.08
2018-12-11T20:41:10.953Z,102222.38
2018-12-11T20:44:35.946Z,102224.81
2018-12-11T20:48:01.333Z,102219.13
2018-12-11T20:51:26.225Z,102218.67
2018-12-11T20:54:51.091Z,102218.16
2018-12-11T20:58:15.911Z,102222.50
2018-12-11T21:01:40.578Z,102220.69
2018-12-11T21:05:05.856Z,102227.86
2018-12-11T21:08:31.521Z,102230.42
2018-12-11T21:11:56.676Z,102236.72
2018-12-11T21:15:21.353Z,102238.12
2018-12-11T21:18:46.540Z,102246.00
2018-12-11T21:22:11.243Z,102241.96
2018-12-11T21:25:36.586Z,102243.19
2018-12-11T21:29:01.300Z,102243.19
2018-12-11T21:32:26.452Z,102246.94
2018-12-11T21:35:51.224Z,102251.55
2018-12-11T21:39:17.054Z,102252.14
2018-12-11T21:42:41.761Z,102249.14
2018-12-11T21:46:07.078Z,102242.34
2018-12-11T21:49:31.752Z,102234.42
2018-12-11T21:52:56.801Z,102235.91
2018-12-11T21:56:21.595Z,102234.28
2018-12-11T21:59:47.191Z,102233.03
2018-12-11T22:03:12.208Z,102226.36
2018-12-11T22:06:37.070Z,102230.79
2018-12-11T22:10:01.749Z,102230.85
2018-12-11T22:13:26.737Z,102232.39
2018-12-11T22:16:51.514Z,102228.61
2018-12-11T22:20:16.354Z,102229.15
2018-12-11T22:23:41.338Z,102226.06
2018-12-11T22:27:06.143Z,102226.16
2018-12-11T22:30:30.911Z,102230.26
2018-12-11T22:33:55.660Z,102239.84
2018-12-11T22:37:20.967Z,102241.86
2018-12-11T22:40:45.707Z,102242.16
2018-12-11T22:44:10.418Z,102242.48
2018-12-11T22:47:35.154Z,102247.52
2018-12-11T22:50:59.970Z,102244.84
2018-12-11T22:54:25.034Z,102247.70
2018-12-11T22:57:49.846Z,102245.51
2018-12-11T23:01:14.559Z,102239.47
2018-12-11T23:04:39.305Z,102249.25
2018-12-11T23:08:04.007Z,102243.47
2018-12-11T23:11:28.827Z,102250.08
2018-12-11T23:14:53.592Z,102252.78
2018-12-11T23:18:18.355Z,102258.23
2018-12-11T23:21:43.167Z,102246.25
2018-12-11T23:25:08.207Z,102253.83
2018-12-11T23:28:32.913Z,102255.89
2018-12-11T23:31:57.689Z,102249.34
2018-12-11T23:35:22.787Z,102251.59
2018-12-11T23:38:47.514Z,102247.96
2018-12-11T23:42:12.289Z,102256.55
2018-12-11T23:45:37.033Z,102247.03
2018-12-11T23:49:01.820Z,102245.62
2018-12-11T23:52:26.622Z,102243.98
2018-12-11T23:55:51.362Z,102244.03
2018-12-11T23:59:16.021Z,102253.42
